This is the latest recevied weather packets stored in our database for station/object OH2HCY-3. If no packets are shown the sender has not sent any weather packets the latest 10 day(s).
| Time | Temp. | Humidity | Pressure | Rain* | Wind** | Luminosity | Snow |
|---|---|---|---|---|---|---|---|
| 1788032108 | 17.78° C | 72% | 1009 hPa | - | - | - | - |
| 1788031068 | 17.78° C | 73% | 1009.1 hPa | - | - | - | - |
| 1788029963 | 17.78° C | 71% | 1009.3 hPa | - | - | - | - |
| 1788028948 | 17.78° C | 70% | 1009.5 hPa | - | - | - | - |
| 1788027909 | 18.33° C | 70% | 1009.7 hPa | - | - | - | - |
| 1788025703 | 18.33° C | 68% | 1009.9 hPa | - | - | - | - |
| 1788024593 | 18.33° C | 67% | 1010.2 hPa | - | - | - | - |
| 1788023488 | 18.33° C | 67% | 1010.2 hPa | - | - | - | - |
| 1788022477 | 18.33° C | 67% | 1010.5 hPa | - | - | - | - |
| 1788020473 | 18.89° C | 67% | 1010.8 hPa | - | - | - | - |
| 1788019463 | 18.89° C | 66% | 1010.8 hPa | - | - | - | - |
| 1788018293 | 18.89° C | 65% | 1010.9 hPa | - | - | - | - |
| 1788017168 | 18.89° C | 63% | 1011.1 hPa | - | - | - | - |
| 1788016093 | 18.89° C | 62% | 1011.2 hPa | - | - | - | - |
| 1788014968 | 18.89° C | 63% | 1011.2 hPa | - | - | - | - |
| 1788013943 | 18.89° C | 66% | 1011.5 hPa | - | - | - | - |
| 1788012762 | 19.44° C | 64% | 1011.5 hPa | - | - | - | - |
| 1788011768 | 19.44° C | 64% | 1011.5 hPa | - | - | - | - |
| 1788010747 | 18.89° C | 63% | 1011.6 hPa | - | - | - | - |
| 1788008438 | 20.56° C | 57% | 1011.9 hPa | - | - | - | - |
| 1788007273 | 20.56° C | 57% | 1012.2 hPa | - | - | - | - |
| 1788006177 | 20° C | 59% | 1012.5 hPa | - | - | - | - |
| 1788005159 | 20° C | 62% | 1012.8 hPa | - | - | - | - |
| 1788005156 | 20° C | 62% | 1012.8 hPa | - | - | - | - |
| 1788003989 | 18.89° C | 66% | 1013.1 hPa | - | - | - | - |
* Rain since midnight (hover to see other rain measurements)
** Current wind speed in m/s (hover to see current wind gust speed)